createdAt,value
2023-02-12T00:01:01.570Z,103536.13
2023-02-12T00:03:28.583Z,103529.03
2023-02-12T00:05:55.739Z,103534.66
2023-02-12T00:08:22.795Z,103534.66
2023-02-12T00:10:49.615Z,103528.19
2023-02-12T00:13:16.496Z,103532.38
2023-02-12T00:15:43.486Z,103540.81
2023-02-12T00:18:10.804Z,103538.00
2023-02-12T00:20:38.507Z,103530.09
2023-02-12T00:23:06.100Z,103541.59
2023-02-12T00:25:33.325Z,103543.78
2023-02-12T00:28:00.169Z,103535.63
2023-02-12T00:30:27.021Z,103529.66
2023-02-12T00:32:53.899Z,103533.56
2023-02-12T00:35:20.816Z,103537.72
2023-02-12T00:37:47.781Z,103537.72
2023-02-12T00:40:14.636Z,103543.63
2023-02-12T00:42:41.493Z,103530.03
2023-02-12T00:45:08.808Z,103537.91
2023-02-12T00:47:35.661Z,103533.59
2023-02-12T00:50:02.743Z,103537.19
2023-02-12T00:52:29.581Z,103533.78
2023-02-12T00:54:56.408Z,103537.69
2023-02-12T00:57:23.370Z,103534.25
2023-02-12T00:59:50.269Z,103535.88
2023-02-12T01:02:18.387Z,103527.19
2023-02-12T01:04:45.436Z,103535.28
2023-02-12T01:07:12.309Z,103536.63
2023-02-12T01:09:39.220Z,103535.78
2023-02-12T01:12:06.511Z,103533.59
2023-02-12T01:14:33.500Z,103528.47
2023-02-12T01:17:00.424Z,103535.44
2023-02-12T01:19:28.092Z,103531.19
2023-02-12T01:21:55.045Z,103539.00
2023-02-12T01:24:22.057Z,103533.03
2023-02-12T01:26:48.941Z,103532.16
2023-02-12T01:29:15.764Z,103533.53
2023-02-12T01:31:43.081Z,103538.53
2023-02-12T01:34:10.805Z,103536.59
2023-02-12T01:36:38.163Z,103530.63
2023-02-12T01:39:06.181Z,103524.13
2023-02-12T01:41:34.594Z,103519.03
2023-02-12T01:44:04.390Z,103522.94
2023-02-12T01:46:31.095Z,103533.56
2023-02-12T01:48:58.170Z,103539.44
2023-02-12T01:51:26.230Z,103534.91
2023-02-12T01:53:54.624Z,103537.09
2023-02-12T01:56:22.019Z,103529.75
2023-02-12T01:58:50.863Z,103531.97
2023-02-12T02:01:20.026Z,103530.88
2023-02-12T02:03:49.136Z,103525.50
2023-02-12T02:06:18.488Z,103532.22
2023-02-12T02:08:45.636Z,103518.91
2023-02-12T02:11:15.898Z,103526.75
2023-02-12T02:13:45.645Z,103525.03
2023-02-12T02:16:15.736Z,103521.25
2023-02-12T02:18:47.338Z,103534.22
2023-02-12T02:21:17.307Z,103533.34
2023-02-12T02:23:48.921Z,103531.06
2023-02-12T02:26:18.808Z,103539.72
2023-02-12T02:28:54.866Z,103542.53
2023-02-12T02:31:27.769Z,103538.00
2023-02-12T02:33:54.957Z,103542.19
2023-02-12T02:36:25.843Z,103542.41
2023-02-12T02:38:57.519Z,103534.84
2023-02-12T02:41:29.299Z,103545.22
2023-02-12T02:43:56.505Z,103538.41
2023-02-12T02:46:29.337Z,103541.44
2023-02-12T02:48:59.102Z,103540.34
2023-02-12T02:51:28.832Z,103524.59
2023-02-12T02:54:00.865Z,103530.81
2023-02-12T02:56:29.346Z,103534.38
2023-02-12T02:58:59.510Z,103525.59
2023-02-12T03:01:31.454Z,103529.84
2023-02-12T03:04:04.284Z,103524.22
2023-02-12T03:06:36.561Z,103520.84
2023-02-12T03:09:06.944Z,103512.03
2023-02-12T03:11:34.719Z,103508.97
2023-02-12T03:14:04.475Z,103511.44
2023-02-12T03:16:33.256Z,103518.75
2023-02-12T03:19:05.975Z,103515.34
2023-02-12T03:21:37.792Z,103521.19
2023-02-12T03:24:10.928Z,103518.88
2023-02-12T03:26:44.308Z,103513.50
2023-02-12T03:29:11.745Z,103510.22
2023-02-12T03:31:41.578Z,103516.56
2023-02-12T03:34:11.410Z,103517.66
2023-02-12T03:36:39.453Z,103510.34
2023-02-12T03:39:11.816Z,103516.22
2023-02-12T03:41:41.606Z,103520.97
2023-02-12T03:44:11.420Z,103517.31
2023-02-12T03:46:38.520Z,103513.88
2023-02-12T03:49:10.412Z,103513.88
2023-02-12T03:51:40.135Z,103507.69
2023-02-12T03:54:10.806Z,103509.84
2023-02-12T03:56:41.991Z,103505.34
2023-02-12T03:59:08.728Z,103514.88
2023-02-12T04:01:36.318Z,103517.06
2023-02-12T04:04:05.708Z,103518.66
2023-02-12T04:06:32.740Z,103517.81
2023-02-12T04:09:03.383Z,103517.19
2023-02-12T04:11:35.290Z,103520.00
2023-02-12T04:14:05.317Z,103520.00
2023-02-12T04:16:37.932Z,103512.69
2023-02-12T04:19:05.310Z,103509.50
2023-02-12T04:21:33.362Z,103519.03
2023-02-12T04:24:00.539Z,103514.28
2023-02-12T04:26:34.592Z,103508.88
2023-02-12T04:29:04.431Z,103512.19
2023-02-12T04:31:35.802Z,103507.16
2023-02-12T04:34:06.199Z,103510.19
2023-02-12T04:36:35.725Z,103512.66
2023-02-12T04:39:05.095Z,103509.84
2023-02-12T04:41:32.071Z,103508.13
2023-02-12T04:43:58.754Z,103506.44
2023-02-12T04:46:25.555Z,103513.16
2023-02-12T04:48:54.762Z,103508.03
2023-02-12T04:51:21.478Z,103508.03
2023-02-12T04:53:48.193Z,103514.97
2023-02-12T04:56:15.024Z,103511.06
2023-02-12T04:58:42.210Z,103508.25
2023-02-12T05:01:10.291Z,103511.56
2023-02-12T05:03:37.352Z,103516.31
2023-02-12T05:06:05.396Z,103511.78
2023-02-12T05:08:32.175Z,103511.78
2023-02-12T05:11:03.739Z,103512.53
2023-02-12T05:13:30.799Z,103519.00
2023-02-12T05:15:58.244Z,103512.28
2023-02-12T05:18:25.166Z,103513.38
2023-02-12T05:20:55.124Z,103510.81
2023-02-12T05:23:21.830Z,103516.66
2023-02-12T05:25:48.560Z,103510.22
2023-02-12T05:28:15.744Z,103497.00
2023-02-12T05:30:42.548Z,103507.63
2023-02-12T05:33:09.282Z,103507.63
2023-02-12T05:35:36.219Z,103502.25
2023-02-12T05:38:02.895Z,103499.72
2023-02-12T05:40:29.615Z,103496.50
2023-02-12T05:42:56.357Z,103497.13
2023-02-12T05:45:28.145Z,103500.44
2023-02-12T05:47:55.726Z,103501.28
2023-02-12T05:50:22.409Z,103498.47
2023-02-12T05:52:49.146Z,103493.34
2023-02-12T05:55:15.834Z,103495.78
2023-02-12T05:57:42.957Z,103500.91
2023-02-12T06:00:10.333Z,103498.38
2023-02-12T06:02:37.668Z,103499.19
2023-02-12T06:05:04.847Z,103491.91
2023-02-12T06:07:31.633Z,103501.91
2023-02-12T06:09:59.422Z,103502.97
2023-02-12T06:12:26.477Z,103502.13
2023-02-12T06:14:53.605Z,103504.31
2023-02-12T06:17:20.385Z,103501.75
2023-02-12T06:19:47.166Z,103506.50
2023-02-12T06:22:13.955Z,103505.44
2023-02-12T06:24:40.620Z,103507.84
2023-02-12T06:27:07.285Z,103496.59
2023-02-12T06:29:33.943Z,103497.72
2023-02-12T06:32:01.089Z,103490.16
2023-02-12T06:34:27.864Z,103498.81
2023-02-12T06:36:54.923Z,103499.69
2023-02-12T06:39:21.680Z,103494.31
2023-02-12T06:41:48.827Z,103498.19
2023-02-12T06:44:20.904Z,103503.81
2023-02-12T06:46:47.889Z,103504.44
2023-02-12T06:49:16.911Z,103501.50
2023-02-12T06:51:43.697Z,103496.75
2023-02-12T06:54:12.894Z,103488.31
2023-02-12T06:56:39.914Z,103497.81
2023-02-12T06:59:06.620Z,103500.63
2023-02-12T07:01:33.354Z,103500.63
2023-02-12T07:04:03.822Z,103498.91
2023-02-12T07:06:31.186Z,103498.56
2023-02-12T07:08:58.607Z,103501.13
2023-02-12T07:11:27.935Z,103504.16
2023-02-12T07:13:54.660Z,103501.13
2023-02-12T07:16:24.883Z,103508.06
2023-02-12T07:18:51.708Z,103512.19
2023-02-12T07:21:18.754Z,103514.88
2023-02-12T07:23:50.867Z,103518.81
2023-02-12T07:26:18.774Z,103518.19
2023-02-12T07:28:45.464Z,103519.19
2023-02-12T07:31:14.067Z,103522.34
2023-02-12T07:33:41.349Z,103518.84
2023-02-12T07:36:09.770Z,103520.91
2023-02-12T07:38:39.994Z,103521.91
2023-02-12T07:41:12.213Z,103522.25
2023-02-12T07:43:39.961Z,103530.81
2023-02-12T07:46:08.024Z,103524.47
2023-02-12T07:48:34.851Z,103519.84
2023-02-12T07:51:04.867Z,103525.59
2023-02-12T07:53:32.043Z,103526.34
2023-02-12T07:56:01.836Z,103528.19
2023-02-12T07:58:28.550Z,103533.06
2023-02-12T08:00:55.311Z,103530.16
2023-02-12T08:03:22.047Z,103526.09
2023-02-12T08:05:54.801Z,103527.06
2023-02-12T08:08:21.770Z,103530.84
2023-02-12T08:10:49.052Z,103531.81
2023-02-12T08:13:15.741Z,103528.53
2023-02-12T08:15:42.865Z,103536.81
2023-02-12T08:18:09.596Z,103523.09
2023-02-12T08:20:36.345Z,103527.97
2023-02-12T08:23:03.211Z,103529.19
2023-02-12T08:25:29.882Z,103532.38
2023-02-12T08:27:56.602Z,103531.88
2023-02-12T08:30:25.811Z,103528.53
2023-02-12T08:32:52.658Z,103527.22
2023-02-12T08:35:19.390Z,103526.94
2023-02-12T08:37:46.166Z,103537.72
2023-02-12T08:40:14.026Z,103545.88
2023-02-12T08:42:41.449Z,103543.72
2023-02-12T08:45:08.627Z,103542.34
2023-02-12T08:47:35.346Z,103538.44
2023-02-12T08:50:04.373Z,103530.63
2023-02-12T08:52:31.092Z,103532.56
2023-02-12T08:54:57.784Z,103535.97
2023-02-12T08:57:24.496Z,103547.84
2023-02-12T08:59:51.570Z,103548.69
2023-02-12T09:02:18.936Z,103550.41
2023-02-12T09:04:45.682Z,103545.88
2023-02-12T09:07:12.760Z,103547.59
2023-02-12T09:09:39.504Z,103544.50
2023-02-12T09:12:06.228Z,103552.09
2023-02-12T09:14:32.963Z,103550.75
2023-02-12T09:16:59.729Z,103545.88
2023-02-12T09:19:26.555Z,103547.84
2023-02-12T09:21:56.022Z,103550.41
2023-02-12T09:24:23.540Z,103550.66
2023-02-12T09:26:52.843Z,103557.13
2023-02-12T09:29:19.545Z,103553.22
2023-02-12T09:31:46.660Z,103552.59
2023-02-12T09:34:13.486Z,103557.66
2023-02-12T09:36:40.313Z,103555.94
2023-02-12T09:39:07.065Z,103561.56
2023-02-12T09:41:35.506Z,103558.47
2023-02-12T09:44:05.281Z,103560.69
2023-02-12T09:46:34.811Z,103574.25
2023-02-12T09:49:03.814Z,103564.31
2023-02-12T09:51:31.600Z,103562.44
2023-02-12T09:54:03.138Z,103558.66
2023-02-12T09:56:30.944Z,103554.59
2023-02-12T09:59:03.962Z,103549.97
2023-02-12T10:02:02.055Z,103548.66
2023-02-12T10:04:29.447Z,103561.34
2023-02-12T10:06:59.426Z,103549.66
2023-02-12T10:09:26.537Z,103545.25
2023-02-12T10:11:56.733Z,103547.34
2023-02-12T10:14:26.612Z,103551.97
2023-02-12T10:16:56.487Z,103548.44
2023-02-12T10:19:23.632Z,103552.47
2023-02-12T10:21:50.878Z,103561.00
2023-02-12T10:24:21.354Z,103559.41
2023-02-12T10:26:49.774Z,103563.72
2023-02-12T10:29:22.596Z,103556.50
2023-02-12T10:31:53.469Z,103558.81
2023-02-12T10:34:22.778Z,103560.25
2023-02-12T10:36:50.654Z,103559.78
2023-02-12T10:39:20.383Z,103553.91
2023-02-12T10:41:49.764Z,103551.47
2023-02-12T10:44:16.832Z,103564.41
2023-02-12T10:46:43.734Z,103562.81
2023-02-12T10:49:13.806Z,103555.84
2023-02-12T10:51:43.565Z,103565.72
2023-02-12T10:54:13.380Z,103559.88
2023-02-12T10:56:40.171Z,103558.75
2023-02-12T10:59:21.544Z,103554.88
2023-02-12T11:01:51.392Z,103560.22
2023-02-12T11:04:21.287Z,103554.88
2023-02-12T11:06:51.160Z,103554.00
2023-02-12T11:09:28.545Z,103558.53
2023-02-12T11:11:55.549Z,103558.25
2023-02-12T11:14:23.136Z,103550.94
2023-02-12T11:16:53.459Z,103559.13
2023-02-12T11:19:24.598Z,103548.13
2023-02-12T11:22:06.388Z,103552.63
2023-02-12T11:24:34.868Z,103542.50
2023-02-12T11:27:10.008Z,103543.34
2023-02-12T11:29:37.361Z,103540.53
2023-02-12T11:32:05.718Z,103540.81
2023-02-12T11:34:33.325Z,103537.38
2023-02-12T11:37:01.761Z,103544.47
2023-02-12T11:39:32.728Z,103540.19
2023-02-12T11:41:59.853Z,103534.81
2023-02-12T11:44:28.810Z,103536.41
2023-02-12T11:47:03.977Z,103535.94
2023-02-12T11:49:33.912Z,103530.56
2023-02-12T11:52:02.473Z,103535.56
2023-02-12T11:54:34.511Z,103541.44
2023-02-12T11:57:01.589Z,103537.16
2023-02-12T11:59:32.350Z,103529.84
2023-02-12T12:02:05.266Z,103527.03
2023-02-12T12:04:36.777Z,103516.28
2023-02-12T12:07:06.610Z,103522.63
2023-02-12T12:09:39.887Z,103519.72
2023-02-12T12:12:09.786Z,103529.00
2023-02-12T12:15:02.328Z,103526.06
2023-02-12T12:17:35.211Z,103511.44
2023-02-12T12:20:06.995Z,103523.75
2023-02-12T12:22:37.685Z,103522.78
2023-02-12T12:25:07.480Z,103515.97
2023-02-12T12:27:40.925Z,103518.19
2023-02-12T12:30:18.845Z,103512.78
2023-02-12T12:32:50.532Z,103517.31
2023-02-12T12:35:19.066Z,103510.09
2023-02-12T12:37:46.313Z,103510.38
2023-02-12T12:40:14.530Z,103503.66
2023-02-12T12:42:53.457Z,103499.13
2023-02-12T12:45:23.302Z,103495.47
2023-02-12T12:47:53.112Z,103490.09
2023-02-12T12:50:23.209Z,103481.06
2023-02-12T12:52:58.642Z,103486.91
2023-02-12T12:55:28.798Z,103490.59
2023-02-12T12:57:59.217Z,103486.28
2023-02-12T13:00:26.374Z,103479.47
2023-02-12T13:02:56.268Z,103477.88
2023-02-12T13:05:26.215Z,103477.50
2023-02-12T13:08:05.252Z,103479.72
2023-02-12T13:10:35.164Z,103481.41
2023-02-12T13:13:05.291Z,103476.03
2023-02-12T13:15:36.755Z,103482.13
2023-02-12T13:18:04.285Z,103476.78
2023-02-12T13:20:34.931Z,103465.44
2023-02-12T13:23:04.763Z,103468.59
2023-02-12T13:25:36.304Z,103462.13
2023-02-12T13:28:05.271Z,103454.59
2023-02-12T13:30:37.572Z,103459.53
2023-02-12T13:33:18.697Z,103447.97
2023-02-12T13:35:47.691Z,103451.88
2023-02-12T13:38:19.599Z,103443.19
2023-02-12T13:40:50.172Z,103450.78
2023-02-12T13:43:28.930Z,103454.66
2023-02-12T13:45:59.191Z,103454.59
2023-02-12T13:48:26.506Z,103444.78
2023-02-12T13:51:01.323Z,103456.38
2023-02-12T13:53:36.459Z,103441.13
2023-02-12T13:56:04.534Z,103439.41
2023-02-12T13:58:35.510Z,103434.53
2023-02-12T14:01:09.563Z,103443.81
2023-02-12T14:03:37.277Z,103434.19
2023-02-12T14:06:11.347Z,103435.03
2023-02-12T14:08:42.429Z,103438.09
2023-02-12T14:11:12.717Z,103430.75
2023-02-12T14:13:42.524Z,103419.75
2023-02-12T14:16:12.417Z,103431.00
2023-02-12T14:18:41.514Z,103419.53
2023-02-12T14:21:10.718Z,103421.38
2023-02-12T14:23:38.500Z,103425.38
2023-02-12T14:26:07.032Z,103415.38
2023-02-12T14:28:36.929Z,103409.53
2023-02-12T14:31:06.956Z,103414.41
2023-02-12T14:33:33.747Z,103419.53
2023-02-12T14:36:03.607Z,103416.22
2023-02-12T14:38:36.813Z,103410.97
2023-02-12T14:41:34.333Z,103407.66
2023-02-12T14:44:04.112Z,103407.16
2023-02-12T14:46:34.422Z,103402.75
2023-02-12T14:49:06.258Z,103405.56
2023-02-12T14:51:38.570Z,103406.19
2023-02-12T14:54:10.731Z,103418.84
2023-02-12T14:56:43.241Z,103416.03
2023-02-12T14:59:12.911Z,103411.63
2023-02-12T15:01:39.798Z,103406.88
2023-02-12T15:04:09.584Z,103401.88
2023-02-12T15:06:40.119Z,103404.69
2023-02-12T15:09:10.154Z,103393.44
2023-02-12T15:11:39.954Z,103392.06
2023-02-12T15:14:11.824Z,103386.47
2023-02-12T15:16:43.183Z,103389.03
2023-02-12T15:19:11.499Z,103387.94
2023-02-12T15:21:39.029Z,103382.31
2023-02-12T15:24:09.323Z,103382.91
2023-02-12T15:26:41.585Z,103383.41
2023-02-12T15:29:12.702Z,103376.06
2023-02-12T15:31:39.586Z,103372.41
2023-02-12T15:34:06.865Z,103366.78
2023-02-12T15:36:34.479Z,103373.53
2023-02-12T15:39:04.606Z,103370.97
2023-02-12T15:41:32.765Z,103366.44
2023-02-12T15:44:00.800Z,103367.53
2023-02-12T15:46:27.907Z,103363.63
2023-02-12T15:48:55.923Z,103368.69
2023-02-12T15:51:28.936Z,103362.19
2023-02-12T15:53:56.972Z,103365.88
2023-02-12T15:56:25.208Z,103363.88
2023-02-12T15:58:54.072Z,103364.38
2023-02-12T16:01:23.164Z,103357.44
2023-02-12T16:03:52.878Z,103364.16
2023-02-12T16:06:23.831Z,103356.81
2023-02-12T16:08:56.018Z,103359.28
2023-02-12T16:11:23.611Z,103351.94
2023-02-12T16:13:53.701Z,103350.00
2023-02-12T16:16:23.339Z,103351.94
2023-02-12T16:18:53.228Z,103359.53
2023-02-12T16:21:21.604Z,103352.19
2023-02-12T16:23:50.469Z,103345.38
2023-02-12T16:26:18.755Z,103356.59
2023-02-12T16:28:48.632Z,103351.25
2023-02-12T16:31:16.876Z,103353.69
2023-02-12T16:33:48.050Z,103337.13
2023-02-12T16:36:17.908Z,103343.81
2023-02-12T16:38:46.890Z,103341.25
2023-02-12T16:41:16.896Z,103336.50
2023-02-12T16:43:43.956Z,103334.44
2023-02-12T16:46:12.114Z,103347.28
2023-02-12T16:48:42.202Z,103349.47
2023-02-12T16:51:14.831Z,103347.78
2023-02-12T16:53:44.671Z,103350.78
2023-02-12T16:56:15.664Z,103354.97
2023-02-12T16:58:42.828Z,103358.50
2023-02-12T17:01:09.616Z,103355.94
2023-02-12T17:03:37.812Z,103354.22
2023-02-12T17:06:04.793Z,103352.28
2023-02-12T17:08:36.883Z,103353.66
2023-02-12T17:11:03.679Z,103356.44
2023-02-12T17:13:30.571Z,103354.47
2023-02-12T17:15:58.962Z,103358.63
2023-02-12T17:18:28.889Z,103357.78
2023-02-12T17:20:57.356Z,103356.06
2023-02-12T17:23:24.576Z,103363.63
2023-02-12T17:25:51.698Z,103360.00
2023-02-12T17:28:18.495Z,103360.22
2023-02-12T17:30:47.934Z,103358.28
2023-02-12T17:33:16.065Z,103354.63
2023-02-12T17:35:42.841Z,103366.09
2023-02-12T17:38:09.829Z,103366.94
2023-02-12T17:40:37.191Z,103367.78
2023-02-12T17:43:05.710Z,103368.03
2023-02-12T17:45:32.746Z,103373.91
2023-02-12T17:47:59.580Z,103370.25
2023-02-12T17:50:26.451Z,103374.16
2023-02-12T17:52:53.312Z,103382.19
2023-02-12T17:55:20.133Z,103382.53
2023-02-12T17:57:46.931Z,103378.63
2023-02-12T18:00:14.318Z,103378.41
2023-02-12T18:02:41.170Z,103382.66
2023-02-12T18:05:08.406Z,103378.88
2023-02-12T18:07:35.784Z,103382.06
2023-02-12T18:10:04.889Z,103380.22
2023-02-12T18:12:34.789Z,103378.84
2023-02-12T18:15:02.606Z,103384.59
2023-02-12T18:17:29.633Z,103391.41
2023-02-12T18:19:57.402Z,103392.88
2023-02-12T18:22:24.536Z,103397.13
2023-02-12T18:24:51.629Z,103400.56
2023-02-12T18:27:18.849Z,103394.44
2023-02-12T18:29:45.746Z,103401.53
2023-02-12T18:32:16.590Z,103402.13
2023-02-12T18:34:45.807Z,103394.03
2023-02-12T18:37:13.954Z,103406.13
2023-02-12T18:39:41.016Z,103419.06
2023-02-12T18:42:13.856Z,103407.84
2023-02-12T18:44:46.695Z,103407.84
2023-02-12T18:47:13.490Z,103398.31
2023-02-12T18:49:40.199Z,103402.22
2023-02-12T18:52:07.700Z,103402.84
2023-02-12T18:54:35.128Z,103405.66
2023-02-12T18:57:02.179Z,103400.03
2023-02-12T18:59:29.020Z,103395.00
2023-02-12T19:01:56.001Z,103395.84
2023-02-12T19:04:24.262Z,103398.91
2023-02-12T19:06:52.550Z,103402.56
2023-02-12T19:09:20.483Z,103396.09
2023-02-12T19:11:48.454Z,103408.19
2023-02-12T19:14:16.379Z,103410.66
2023-02-12T19:16:45.132Z,103414.56
2023-02-12T19:19:15.361Z,103414.06
2023-02-12T19:21:42.615Z,103407.25
2023-02-12T19:24:11.291Z,103410.31
2023-02-12T19:26:38.131Z,103404.91
2023-02-12T19:29:05.516Z,103400.41
2023-02-12T19:31:36.220Z,103411.91
2023-02-12T19:34:05.430Z,103400.66
2023-02-12T19:36:34.056Z,103399.19
2023-02-12T19:39:01.333Z,103405.31
2023-02-12T19:41:29.112Z,103408.00
2023-02-12T19:43:58.403Z,103407.16
2023-02-12T19:46:26.159Z,103409.94
2023-02-12T19:48:56.004Z,103403.47
2023-02-12T19:51:26.441Z,103399.19
2023-02-12T19:53:53.765Z,103407.63
2023-02-12T19:56:20.871Z,103405.09
2023-02-12T19:58:47.672Z,103416.31
2023-02-12T20:01:16.774Z,103402.50
2023-02-12T20:03:47.432Z,103406.06
2023-02-12T20:06:17.359Z,103401.53
2023-02-12T20:08:44.543Z,103409.97
2023-02-12T20:11:12.691Z,103396.66
2023-02-12T20:13:39.498Z,103392.66
2023-02-12T20:16:08.072Z,103395.47
2023-02-12T20:18:35.368Z,103394.88
2023-02-12T20:21:08.044Z,103396.22
2023-02-12T20:23:37.936Z,103391.09
2023-02-12T20:26:06.386Z,103394.75
2023-02-12T20:28:34.608Z,103387.09
2023-02-12T20:31:07.938Z,103377.78
2023-02-12T20:33:34.706Z,103378.88
2023-02-12T20:36:01.362Z,103375.72
2023-02-12T20:38:28.777Z,103372.03
2023-02-12T20:41:00.746Z,103377.03
2023-02-12T20:43:30.969Z,103371.41
2023-02-12T20:46:03.674Z,103374.72
2023-02-12T20:48:32.819Z,103369.97
2023-02-12T20:51:06.189Z,103371.06
2023-02-12T20:53:33.993Z,103371.94
2023-02-12T20:56:01.690Z,103366.19
2023-02-12T20:58:31.827Z,103383.78
2023-02-12T21:01:01.624Z,103377.91
2023-02-12T21:03:28.326Z,103372.03
2023-02-12T21:05:55.394Z,103372.66
2023-02-12T21:08:22.345Z,103372.16
2023-02-12T21:10:49.472Z,103365.19
2023-02-12T21:13:16.154Z,103363.59
2023-02-12T21:15:43.020Z,103354.91
2023-02-12T21:18:09.809Z,103360.88
2023-02-12T21:20:36.503Z,103356.97
2023-02-12T21:23:05.721Z,103354.75
2023-02-12T21:25:32.522Z,103360.13
2023-02-12T21:27:59.306Z,103355.72
2023-02-12T21:30:29.170Z,103343.97
2023-02-12T21:32:55.955Z,103353.03
2023-02-12T21:35:22.718Z,103349.09
2023-02-12T21:37:49.436Z,103358.13
2023-02-12T21:40:16.291Z,103357.28
2023-02-12T21:42:45.216Z,103351.41
2023-02-12T21:45:12.618Z,103357.28
2023-02-12T21:47:39.408Z,103353.38
2023-02-12T21:50:06.741Z,103349.69
2023-02-12T21:52:33.514Z,103352.28
2023-02-12T21:55:03.430Z,103348.59
2023-02-12T21:57:31.297Z,103342.97
2023-02-12T21:59:58.088Z,103348.00
2023-02-12T22:02:27.098Z,103350.56
2023-02-12T22:04:54.531Z,103346.66
2023-02-12T22:07:21.299Z,103351.41
2023-02-12T22:09:48.476Z,103358.38
2023-02-12T22:12:15.196Z,103352.50
2023-02-12T22:14:42.102Z,103358.13
2023-02-12T22:17:08.963Z,103366.56
2023-02-12T22:19:36.180Z,103349.69
2023-02-12T22:22:03.314Z,103352.50
2023-02-12T22:24:30.248Z,103357.88
2023-02-12T22:26:57.182Z,103364.84
2023-02-12T22:29:24.135Z,103362.53
2023-02-12T22:31:51.217Z,103359.38
2023-02-12T22:34:19.227Z,103346.69
2023-02-12T22:36:46.258Z,103346.94
2023-02-12T22:39:14.400Z,103355.38
2023-02-12T22:41:42.629Z,103346.34
2023-02-12T22:44:10.418Z,103344.63
2023-02-12T22:46:37.294Z,103340.84
2023-02-12T22:49:04.509Z,103344.53
2023-02-12T22:51:32.396Z,103341.97
2023-02-12T22:53:59.610Z,103337.47
2023-02-12T22:56:27.041Z,103342.66
2023-02-12T22:58:55.249Z,103345.47
2023-02-12T23:01:22.146Z,103352.56
2023-02-12T23:03:49.149Z,103355.00
2023-02-12T23:06:17.433Z,103351.50
2023-02-12T23:08:44.725Z,103348.34
2023-02-12T23:11:12.183Z,103351.63
2023-02-12T23:13:39.344Z,103345.16
2023-02-12T23:16:06.697Z,103349.34
2023-02-12T23:18:33.891Z,103354.09
2023-02-12T23:21:01.177Z,103357.75
2023-02-12T23:23:28.381Z,103369.22
2023-02-12T23:25:55.448Z,103360.44
2023-02-12T23:28:22.680Z,103352.28
2023-02-12T23:30:50.279Z,103360.69
2023-02-12T23:33:17.343Z,103356.63
2023-02-12T23:35:44.532Z,103360.94
2023-02-12T23:38:11.684Z,103358.88
2023-02-12T23:40:38.776Z,103352.50
2023-02-12T23:43:05.830Z,103354.47
2023-02-12T23:45:33.148Z,103359.72
2023-02-12T23:48:00.001Z,103351.19
2023-02-12T23:50:26.980Z,103349.47
2023-02-12T23:52:53.846Z,103353.38
2023-02-12T23:55:20.641Z,103354.72
2023-02-12T23:57:48.139Z,103347.41
